createdAt,value
2019-05-07T00:00:46.738Z,8.14
2019-05-07T00:03:16.314Z,8.10
2019-05-07T00:05:45.852Z,8.05
2019-05-07T00:08:15.347Z,7.99
2019-05-07T00:10:44.802Z,7.99
2019-05-07T00:13:14.372Z,7.98
2019-05-07T00:15:43.871Z,7.94
2019-05-07T00:18:13.332Z,7.95
2019-05-07T00:20:42.791Z,7.96
2019-05-07T00:23:12.499Z,7.90
2019-05-07T00:25:42.387Z,7.83
2019-05-07T00:28:12.340Z,7.81
2019-05-07T00:30:42.642Z,7.79
2019-05-07T00:33:13.167Z,7.76
2019-05-07T00:35:44.448Z,7.73
2019-05-07T00:38:15.581Z,7.71
2019-05-07T00:41:02.891Z,7.70
2019-05-07T00:43:34.118Z,7.64
2019-05-07T00:46:05.571Z,7.59
2019-05-07T00:48:35.059Z,7.53
2019-05-07T00:51:22.737Z,7.51
2019-05-07T00:53:52.459Z,7.53
2019-05-07T00:56:22.421Z,7.57
2019-05-07T00:58:52.702Z,7.61
2019-05-07T01:01:23.403Z,7.62
2019-05-07T01:03:53.588Z,7.65
2019-05-07T01:06:26.345Z,7.62
2019-05-07T01:08:55.657Z,7.63
2019-05-07T01:11:25.522Z,7.62
2019-05-07T01:13:55.011Z,7.63
2019-05-07T01:16:24.493Z,7.64
2019-05-07T01:18:53.950Z,7.64
2019-05-07T01:21:23.811Z,7.66
2019-05-07T01:23:53.376Z,7.68
2019-05-07T01:26:22.837Z,7.68
2019-05-07T01:29:02.831Z,7.67
2019-05-07T01:31:35.909Z,7.67
2019-05-07T01:34:13.061Z,7.66
2019-05-07T01:36:42.908Z,7.66
2019-05-07T01:39:13.098Z,7.67
2019-05-07T01:41:43.370Z,7.68
2019-05-07T01:44:12.947Z,7.70
2019-05-07T01:46:43.371Z,7.71
2019-05-07T01:49:13.929Z,7.72
2019-05-07T01:51:44.452Z,7.73
2019-05-07T01:54:13.955Z,7.75
2019-05-07T01:56:43.776Z,7.74
2019-05-07T01:59:13.232Z,7.75
2019-05-07T02:01:43.147Z,7.76
2019-05-07T02:04:14.267Z,7.77
2019-05-07T02:07:02.823Z,7.77
2019-05-07T02:09:42.334Z,7.77
2019-05-07T02:12:15.791Z,7.77
2019-05-07T02:14:45.295Z,7.79
2019-05-07T02:17:15.153Z,7.79
2019-05-07T02:19:44.650Z,7.77
2019-05-07T02:22:14.164Z,7.73
2019-05-07T02:24:43.612Z,7.71
2019-05-07T02:27:13.112Z,7.70
2019-05-07T02:29:43.093Z,7.70
2019-05-07T02:32:13.442Z,7.67
2019-05-07T02:34:44.210Z,7.67
2019-05-07T02:37:15.740Z,7.67
2019-05-07T02:39:49.856Z,7.68
2019-05-07T02:42:19.349Z,7.66
2019-05-07T02:44:59.763Z,7.63
2019-05-07T02:47:33.071Z,7.58
2019-05-07T02:50:04.242Z,7.51
2019-05-07T02:52:53.364Z,7.46
2019-05-07T02:55:23.511Z,7.42
2019-05-07T02:57:54.211Z,7.36
2019-05-07T03:00:24.518Z,7.37
2019-05-07T03:02:54.098Z,7.40
2019-05-07T03:05:23.588Z,7.43
2019-05-07T03:07:53.728Z,7.46
2019-05-07T03:10:24.220Z,7.48
2019-05-07T03:12:54.010Z,7.51
2019-05-07T03:15:24.295Z,7.49
2019-05-07T03:17:54.090Z,7.47
2019-05-07T03:20:43.040Z,7.46
2019-05-07T03:23:14.326Z,7.38
2019-05-07T03:25:54.124Z,7.34
2019-05-07T03:28:24.458Z,7.32
2019-05-07T03:30:57.152Z,7.23
2019-05-07T03:33:29.755Z,7.15
2019-05-07T03:36:06.298Z,7.07
2019-05-07T03:38:33.509Z,7.02
2019-05-07T03:41:04.224Z,6.92
2019-05-07T03:43:34.124Z,6.82
2019-05-07T03:46:05.434Z,6.77
2019-05-07T03:48:36.932Z,6.72
2019-05-07T03:51:06.505Z,6.65
2019-05-07T03:53:35.993Z,6.58
2019-05-07T03:56:05.522Z,6.53
2019-05-07T03:58:35.017Z,6.48
2019-05-07T04:01:04.816Z,6.46
2019-05-07T04:03:34.711Z,6.42
2019-05-07T04:06:04.533Z,6.42
2019-05-07T04:08:34.053Z,6.44
2019-05-07T04:11:04.099Z,6.44
2019-05-07T04:13:34.061Z,6.46
2019-05-07T04:16:04.276Z,6.46
2019-05-07T04:18:34.261Z,6.44
2019-05-07T04:21:04.196Z,6.43
2019-05-07T04:23:34.543Z,6.43
2019-05-07T04:26:05.870Z,6.44
2019-05-07T04:28:54.228Z,6.47
2019-05-07T04:31:25.548Z,6.48
2019-05-07T04:33:57.689Z,6.53
2019-05-07T04:36:28.963Z,6.59
2019-05-07T04:38:58.422Z,6.63
2019-05-07T04:41:28.306Z,6.68
2019-05-07T04:43:58.425Z,6.72
2019-05-07T04:46:27.929Z,6.74
2019-05-07T04:48:59.615Z,6.78
2019-05-07T04:51:33.753Z,6.87
2019-05-07T04:54:03.800Z,6.94
2019-05-07T04:56:33.827Z,6.99
2019-05-07T04:59:03.953Z,7.03
2019-05-07T05:01:35.063Z,7.07
2019-05-07T05:04:20.708Z,7.08
2019-05-07T05:06:36.066Z,7.10
2019-05-07T05:09:06.939Z,7.13
2019-05-07T05:11:36.447Z,7.13
2019-05-07T05:14:07.894Z,7.16
2019-05-07T05:16:37.159Z,7.15
2019-05-07T05:19:06.626Z,7.19
2019-05-07T05:21:49.938Z,7.22
2019-05-07T05:24:24.051Z,7.32
2019-05-07T05:26:53.512Z,7.41
2019-05-07T05:29:23.035Z,7.47
2019-05-07T05:31:52.938Z,7.49
2019-05-07T05:34:22.584Z,7.52
2019-05-07T05:36:53.204Z,7.53
2019-05-07T05:39:23.207Z,7.60
2019-05-07T05:41:54.303Z,7.66
2019-05-07T05:44:28.375Z,7.71
2019-05-07T05:46:57.882Z,7.77
2019-05-07T05:49:27.333Z,7.86
2019-05-07T05:51:58.531Z,7.93
2019-05-07T05:54:32.426Z,8.02
2019-05-07T05:57:09.701Z,8.11
2019-05-07T05:59:56.672Z,8.21
2019-05-07T06:02:43.996Z,8.30
2019-05-07T06:05:22.153Z,8.32
2019-05-07T06:07:53.741Z,8.27
2019-05-07T06:10:42.452Z,8.38
2019-05-07T06:13:13.628Z,8.33
2019-05-07T06:15:53.749Z,8.33
2019-05-07T06:18:41.878Z,8.48
2019-05-07T06:21:25.227Z,8.50
2019-05-07T06:23:59.319Z,8.62
2019-05-07T06:26:28.949Z,8.75
2019-05-07T06:28:58.785Z,8.93
2019-05-07T06:31:28.368Z,8.94
2019-05-07T06:33:57.949Z,9.03
2019-05-07T06:36:28.112Z,9.09
2019-05-07T06:39:01.824Z,9.17
2019-05-07T06:41:52.557Z,9.25
2019-05-07T06:44:23.058Z,9.15
2019-05-07T06:46:52.843Z,9.11
2019-05-07T06:49:22.456Z,9.46
2019-05-07T06:51:52.937Z,9.73
2019-05-07T06:54:23.386Z,9.74
2019-05-07T06:56:52.888Z,9.73
2019-05-07T06:59:27.148Z,9.86
2019-05-07T07:02:02.355Z,10.08
2019-05-07T07:04:35.632Z,10.32
2019-05-07T07:07:26.326Z,10.36
2019-05-07T07:09:48.120Z,10.29
2019-05-07T07:12:25.548Z,10.30
2019-05-07T07:14:53.714Z,10.13
2019-05-07T07:17:23.201Z,10.07
2019-05-07T07:19:53.224Z,10.19
2019-05-07T07:22:23.079Z,10.11
2019-05-07T07:24:53.118Z,10.01
2019-05-07T07:27:22.896Z,10.12
2019-05-07T07:30:04.455Z,10.35
2019-05-07T07:32:35.646Z,10.54
2019-05-07T07:35:08.875Z,10.58
2019-05-07T07:37:42.997Z,10.40
2019-05-07T07:42:56.468Z,10.50
2019-05-07T07:45:26.033Z,10.69
2019-05-07T07:47:55.562Z,10.90
2019-05-07T07:50:25.071Z,11.05
2019-05-07T07:52:54.662Z,11.23
2019-05-07T07:55:25.791Z,11.34
2019-05-07T07:58:11.941Z,11.32
2019-05-07T08:00:43.095Z,11.21
2019-05-07T08:03:14.317Z,11.03
2019-05-07T08:05:43.869Z,10.88
2019-05-07T08:08:13.683Z,10.73
2019-05-07T08:10:43.503Z,11.00
2019-05-07T08:13:12.951Z,11.23
2019-05-07T08:15:43.039Z,11.38
2019-05-07T08:18:12.867Z,11.53
2019-05-07T08:20:43.097Z,11.62
2019-05-07T08:23:12.718Z,11.69
2019-05-07T08:25:48.408Z,11.89
2019-05-07T08:28:23.132Z,11.58
2019-05-07T08:31:02.981Z,11.62
2019-05-07T08:33:34.128Z,11.53
2019-05-07T08:36:05.669Z,11.63
2019-05-07T08:38:36.865Z,11.78
2019-05-07T08:41:06.427Z,11.61
2019-05-07T08:43:35.933Z,11.49
2019-05-07T08:46:23.562Z,11.50
2019-05-07T08:48:54.419Z,11.36
2019-05-07T08:51:23.982Z,11.31
2019-05-07T08:54:05.691Z,11.23
2019-05-07T08:56:36.293Z,11.34
2019-05-07T08:59:08.331Z,11.69
2019-05-07T09:01:39.947Z,12.05
2019-05-07T09:04:10.000Z,12.24
2019-05-07T09:06:39.557Z,12.30
2019-05-07T09:09:13.492Z,12.37
2019-05-07T09:11:43.306Z,12.77
2019-05-07T09:14:14.151Z,12.87
2019-05-07T09:16:43.675Z,13.16
2019-05-07T09:19:14.180Z,13.26
2019-05-07T09:21:43.701Z,13.25
2019-05-07T09:24:14.669Z,13.06
2019-05-07T09:26:45.835Z,12.84
2019-05-07T09:29:17.526Z,12.28
2019-05-07T09:31:48.686Z,12.11
2019-05-07T09:34:26.022Z,12.14
2019-05-07T09:37:02.250Z,11.94
2019-05-07T09:39:32.418Z,11.80
2019-05-07T09:42:02.473Z,11.67
2019-05-07T09:44:32.512Z,11.58
2019-05-07T09:47:02.670Z,11.67
2019-05-07T09:49:32.668Z,11.74
2019-05-07T09:52:04.323Z,11.90
2019-05-07T09:54:33.472Z,12.12
2019-05-07T09:57:03.188Z,12.34
2019-05-07T09:59:33.016Z,12.31
2019-05-07T10:02:02.672Z,12.39
2019-05-07T10:04:32.758Z,12.70
2019-05-07T10:07:02.734Z,13.11
2019-05-07T10:09:32.943Z,13.51
2019-05-07T10:12:16.478Z,13.63
2019-05-07T10:14:46.143Z,13.61
2019-05-07T10:17:26.162Z,13.72
2019-05-07T10:19:55.716Z,13.48
2019-05-07T10:22:25.303Z,13.17
2019-05-07T10:24:54.888Z,13.27
2019-05-07T10:27:24.454Z,13.26
2019-05-07T10:29:54.325Z,13.23
2019-05-07T10:32:24.133Z,13.33
2019-05-07T10:34:55.170Z,13.47
2019-05-07T10:37:27.387Z,13.30
2019-05-07T10:39:56.029Z,13.23
2019-05-07T10:42:25.535Z,13.00
2019-05-07T10:45:03.336Z,12.92
2019-05-07T10:47:52.024Z,12.67
2019-05-07T10:50:35.476Z,12.56
2019-05-07T10:52:54.309Z,12.35
2019-05-07T10:55:23.845Z,12.29
2019-05-07T10:57:53.416Z,12.42
2019-05-07T11:00:25.473Z,12.40
2019-05-07T11:02:55.002Z,12.53
2019-05-07T11:05:24.516Z,12.93
2019-05-07T11:07:54.142Z,13.30
2019-05-07T11:10:23.797Z,13.35
2019-05-07T11:12:53.351Z,13.43
2019-05-07T11:15:22.977Z,13.59
2019-05-07T11:17:56.520Z,13.82
2019-05-07T11:20:26.098Z,14.16
2019-05-07T11:22:55.692Z,14.25
2019-05-07T11:25:25.571Z,14.35
2019-05-07T11:27:55.066Z,14.55
2019-05-07T11:30:24.552Z,14.89
2019-05-07T11:32:53.992Z,15.11
2019-05-07T11:35:23.541Z,15.27
2019-05-07T11:37:52.979Z,15.06
2019-05-07T11:40:23.087Z,14.73
2019-05-07T11:43:12.897Z,14.50
2019-05-07T11:45:46.201Z,14.41
2019-05-07T11:48:18.084Z,14.30
2019-05-07T11:51:03.815Z,14.14
2019-05-07T11:53:29.948Z,14.01
2019-05-07T11:55:59.401Z,13.87
2019-05-07T11:58:29.303Z,13.99
2019-05-07T12:01:09.466Z,13.79
2019-05-07T12:03:38.925Z,14.08
2019-05-07T12:06:09.449Z,14.27
2019-05-07T12:08:48.132Z,14.27
2019-05-07T12:11:11.923Z,14.53
2019-05-07T12:13:42.767Z,14.47
2019-05-07T12:16:14.222Z,14.46
2019-05-07T12:18:43.802Z,14.30
2019-05-07T12:21:20.254Z,14.12
2019-05-07T12:23:44.590Z,13.90
2019-05-07T12:26:14.436Z,13.71
2019-05-07T12:28:43.992Z,13.66
2019-05-07T12:31:15.073Z,13.99
2019-05-07T12:33:46.272Z,14.19
2019-05-07T12:36:16.095Z,14.55
2019-05-07T12:38:45.607Z,14.68
2019-05-07T12:41:34.153Z,14.66
2019-05-07T12:44:06.675Z,14.72
2019-05-07T12:46:37.284Z,14.76
2019-05-07T12:49:08.066Z,14.62
2019-05-07T12:51:48.205Z,14.53
2019-05-07T12:54:19.507Z,14.31
2019-05-07T12:56:49.177Z,14.17
2019-05-07T12:59:18.742Z,14.30
2019-05-07T13:02:16.688Z,14.52
2019-05-07T13:04:37.803Z,14.44
2019-05-07T13:07:24.129Z,14.32
2019-05-07T13:09:54.232Z,14.61
2019-05-07T13:12:24.103Z,14.95
2019-05-07T13:14:54.967Z,15.00
2019-05-07T13:17:24.433Z,15.06
2019-05-07T13:19:54.250Z,15.12
2019-05-07T13:22:23.707Z,15.33
2019-05-07T13:24:53.232Z,15.62
2019-05-07T13:27:23.238Z,15.42
2019-05-07T13:29:53.400Z,15.53
2019-05-07T13:32:24.234Z,15.61
2019-05-07T13:34:54.266Z,15.60
2019-05-07T13:37:28.556Z,15.10
2019-05-07T13:40:02.558Z,15.04
2019-05-07T13:42:41.911Z,15.17
2019-05-07T13:45:15.975Z,15.54
2019-05-07T13:47:46.069Z,15.79
2019-05-07T13:50:15.980Z,15.96
2019-05-07T13:52:45.496Z,15.88
2019-05-07T13:55:15.121Z,15.69
2019-05-07T13:57:44.713Z,15.67
2019-05-07T14:00:16.868Z,15.52
2019-05-07T14:02:46.469Z,15.53
2019-05-07T14:05:16.107Z,15.18
2019-05-07T14:07:45.948Z,15.16
2019-05-07T14:10:15.685Z,15.29
2019-05-07T14:12:45.272Z,15.43
2019-05-07T14:15:14.995Z,15.26
2019-05-07T14:17:44.815Z,15.08
2019-05-07T14:20:14.852Z,15.04
2019-05-07T14:22:44.677Z,14.93
2019-05-07T14:25:14.606Z,14.65
2019-05-07T14:27:44.226Z,14.50
2019-05-07T14:30:14.538Z,14.36
2019-05-07T14:32:48.926Z,14.18
2019-05-07T14:35:32.367Z,14.02
2019-05-07T14:38:03.708Z,13.83
2019-05-07T14:40:33.272Z,14.07
2019-05-07T14:43:07.423Z,14.31
2019-05-07T14:45:37.406Z,14.49
2019-05-07T14:48:06.902Z,14.40
2019-05-07T14:50:36.743Z,14.42
2019-05-07T14:53:06.306Z,14.44
2019-05-07T14:55:36.278Z,14.24
2019-05-07T14:58:06.146Z,14.22
2019-05-07T15:00:35.946Z,14.35
2019-05-07T15:03:05.536Z,14.40
2019-05-07T15:05:35.128Z,14.36
2019-05-07T15:08:10.461Z,14.27
2019-05-07T15:10:36.097Z,14.34
2019-05-07T15:13:05.577Z,14.44
2019-05-07T15:15:36.231Z,14.56
2019-05-07T15:18:23.921Z,14.66
2019-05-07T15:20:53.943Z,14.70
2019-05-07T15:23:25.727Z,14.69
2019-05-07T15:25:56.147Z,14.59
2019-05-07T15:28:26.249Z,14.59
2019-05-07T15:31:09.736Z,14.67
2019-05-07T15:33:39.326Z,14.60
2019-05-07T15:36:08.830Z,14.54
2019-05-07T15:38:38.313Z,14.41
2019-05-07T15:41:07.875Z,14.44
2019-05-07T15:43:37.707Z,14.52
2019-05-07T15:46:07.373Z,14.59
2019-05-07T15:48:36.914Z,14.66
2019-05-07T15:51:06.481Z,14.62
2019-05-07T15:53:42.608Z,14.69
2019-05-07T15:56:12.444Z,14.77
2019-05-07T15:58:42.677Z,14.65
2019-05-07T16:01:13.426Z,14.56
2019-05-07T16:03:44.635Z,14.59
2019-05-07T16:06:14.187Z,14.65
2019-05-07T16:08:45.354Z,14.64
2019-05-07T16:11:15.200Z,14.64
2019-05-07T16:13:47.518Z,14.60
2019-05-07T16:16:17.062Z,14.53
2019-05-07T16:19:07.054Z,14.60
2019-05-07T16:21:36.531Z,14.78
2019-05-07T16:24:06.090Z,14.92
2019-05-07T16:26:35.729Z,15.00
2019-05-07T16:29:05.178Z,15.09
2019-05-07T16:31:34.738Z,15.18
2019-05-07T16:34:04.260Z,15.19
2019-05-07T16:36:33.763Z,15.22
2019-05-07T16:39:04.112Z,15.18
2019-05-07T16:41:34.779Z,15.09
2019-05-07T16:44:06.479Z,14.99
2019-05-07T16:46:35.941Z,15.08
2019-05-07T16:49:05.391Z,15.25
2019-05-07T16:51:34.892Z,15.47
2019-05-07T16:54:04.695Z,15.75
2019-05-07T16:56:34.213Z,15.88
2019-05-07T16:59:07.546Z,16.02
2019-05-07T17:01:37.358Z,16.11
2019-05-07T17:04:07.181Z,15.69
2019-05-07T17:06:36.720Z,15.55
2019-05-07T17:09:14.471Z,15.42
2019-05-07T17:11:44.007Z,15.28
2019-05-07T17:14:13.529Z,15.16
2019-05-07T17:16:42.975Z,15.04
2019-05-07T17:19:14.052Z,14.84
2019-05-07T17:21:44.599Z,14.65
2019-05-07T17:24:14.202Z,14.52
2019-05-07T17:26:44.138Z,14.40
2019-05-07T17:29:13.615Z,14.24
2019-05-07T17:31:43.154Z,14.07
2019-05-07T17:34:12.659Z,13.93
2019-05-07T17:36:42.419Z,13.80
2019-05-07T17:39:12.310Z,13.72
2019-05-07T17:41:42.908Z,13.69
2019-05-07T17:44:12.692Z,13.63
2019-05-07T17:46:43.187Z,13.57
2019-05-07T17:49:13.701Z,13.52
2019-05-07T17:51:43.824Z,13.48
2019-05-07T17:54:14.629Z,13.45
2019-05-07T17:56:44.276Z,13.38
2019-05-07T17:59:13.908Z,13.32
2019-05-07T18:01:50.111Z,13.27
2019-05-07T18:04:19.362Z,13.24
2019-05-07T18:06:48.873Z,13.19
2019-05-07T18:09:18.490Z,13.11
2019-05-07T18:11:47.970Z,13.00
2019-05-07T18:14:17.502Z,12.87
2019-05-07T18:16:57.998Z,12.73
2019-05-07T18:19:29.096Z,12.66
2019-05-07T18:21:58.593Z,12.57
2019-05-07T18:24:28.191Z,12.50
2019-05-07T18:26:58.744Z,12.42
2019-05-07T18:29:28.227Z,12.37
2019-05-07T18:32:00.523Z,12.33
2019-05-07T18:34:32.085Z,12.31
2019-05-07T18:37:02.146Z,12.28
2019-05-07T18:39:32.414Z,12.22
2019-05-07T18:42:02.820Z,12.14
2019-05-07T18:44:32.460Z,12.05
2019-05-07T18:47:02.474Z,11.93
2019-05-07T18:49:32.268Z,11.82
2019-05-07T18:52:02.912Z,11.77
2019-05-07T18:54:34.349Z,11.72
2019-05-07T18:57:03.863Z,11.68
2019-05-07T18:59:35.095Z,11.60
2019-05-07T19:02:05.214Z,11.53
2019-05-07T19:04:35.326Z,11.52
2019-05-07T19:07:04.838Z,11.47
2019-05-07T19:09:34.506Z,11.47
2019-05-07T19:12:05.061Z,11.45
2019-05-07T19:14:34.614Z,11.44
2019-05-07T19:17:04.504Z,11.41
2019-05-07T19:19:34.074Z,11.42
2019-05-07T19:22:03.576Z,11.42
2019-05-07T19:24:44.326Z,11.39
2019-05-07T19:27:04.761Z,11.37
2019-05-07T19:29:34.547Z,11.35
2019-05-07T19:32:06.026Z,11.32
2019-05-07T19:34:35.563Z,11.28
2019-05-07T19:37:06.097Z,11.23
2019-05-07T19:39:35.599Z,11.17
2019-05-07T19:42:05.315Z,11.11
2019-05-07T19:44:35.204Z,11.06
2019-05-07T19:47:05.739Z,11.00
2019-05-07T19:49:35.201Z,10.95
2019-05-07T19:52:05.381Z,10.90
2019-05-07T19:54:35.184Z,10.86
2019-05-07T19:57:04.912Z,10.82
2019-05-07T19:59:34.707Z,10.77
2019-05-07T20:02:07.580Z,10.74
2019-05-07T20:04:37.041Z,10.70
2019-05-07T20:07:07.009Z,10.66
2019-05-07T20:09:38.104Z,10.61
2019-05-07T20:12:08.107Z,10.58
2019-05-07T20:14:37.848Z,10.55
2019-05-07T20:17:07.462Z,10.53
2019-05-07T20:19:36.957Z,10.52
2019-05-07T20:22:06.939Z,10.50
2019-05-07T20:24:36.366Z,10.51
2019-05-07T20:27:06.022Z,10.52
2019-05-07T20:29:35.571Z,10.51
2019-05-07T20:32:05.116Z,10.48
2019-05-07T20:34:34.700Z,10.46
2019-05-07T20:37:04.664Z,10.43
2019-05-07T20:39:34.176Z,10.42
2019-05-07T20:42:04.091Z,10.39
2019-05-07T20:44:33.891Z,10.37
2019-05-07T20:47:03.480Z,10.35
2019-05-07T20:49:33.028Z,10.32
2019-05-07T20:52:03.042Z,10.30
2019-05-07T20:54:43.228Z,10.26
2019-05-07T20:57:22.304Z,10.21
2019-05-07T20:59:51.712Z,10.17
2019-05-07T21:02:22.742Z,10.12
2019-05-07T21:04:52.923Z,10.08
2019-05-07T21:07:22.549Z,10.01
2019-05-07T21:09:53.003Z,9.98
2019-05-07T21:12:22.799Z,9.94
2019-05-07T21:14:52.671Z,9.91
2019-05-07T21:17:22.762Z,9.87
2019-05-07T21:19:52.318Z,9.84
2019-05-07T21:22:22.799Z,9.79
2019-05-07T21:24:53.211Z,9.74
2019-05-07T21:27:23.264Z,9.69
2019-05-07T21:29:54.103Z,9.64
2019-05-07T21:32:23.668Z,9.59
2019-05-07T21:34:53.115Z,9.53
2019-05-07T21:37:23.336Z,9.49
2019-05-07T21:39:53.250Z,9.43
2019-05-07T21:42:23.099Z,9.38
2019-05-07T21:44:52.894Z,9.33
2019-05-07T21:47:22.396Z,9.26
2019-05-07T21:49:54.898Z,9.22
2019-05-07T21:52:24.967Z,9.17
2019-05-07T21:54:56.356Z,9.14
2019-05-07T21:57:45.629Z,9.11
2019-05-07T22:00:21.965Z,9.05
2019-05-07T22:02:52.811Z,9.01
2019-05-07T22:05:22.730Z,8.97
2019-05-07T22:07:54.435Z,8.93
2019-05-07T22:10:24.044Z,8.88
2019-05-07T22:12:54.639Z,8.85
2019-05-07T22:15:24.233Z,8.82
2019-05-07T22:17:54.052Z,8.77
2019-05-07T22:20:23.877Z,8.74
2019-05-07T22:22:53.366Z,8.70
2019-05-07T22:25:22.921Z,8.66
2019-05-07T22:27:54.391Z,8.62
2019-05-07T22:30:34.734Z,8.60
2019-05-07T22:33:05.936Z,8.56
2019-05-07T22:35:37.104Z,8.54
2019-05-07T22:38:25.122Z,8.51
2019-05-07T22:40:55.955Z,8.49
2019-05-07T22:43:26.521Z,8.45
2019-05-07T22:45:56.112Z,8.42
2019-05-07T22:48:25.960Z,8.37
2019-05-07T22:50:55.398Z,8.33
2019-05-07T22:53:24.871Z,8.28
2019-05-07T22:55:57.229Z,8.26
2019-05-07T22:58:28.365Z,8.23
2019-05-07T23:01:02.571Z,8.21
2019-05-07T23:03:32.344Z,8.19
2019-05-07T23:06:08.003Z,8.16
2019-05-07T23:08:38.766Z,8.14
2019-05-07T23:11:08.371Z,8.10
2019-05-07T23:13:38.056Z,8.08
2019-05-07T23:16:07.623Z,8.06
2019-05-07T23:18:37.068Z,8.05
2019-05-07T23:21:06.563Z,8.04
2019-05-07T23:23:36.030Z,8.02
2019-05-07T23:26:05.838Z,8.00
2019-05-07T23:28:35.350Z,7.98
2019-05-07T23:31:04.813Z,7.97
2019-05-07T23:33:34.332Z,7.94
2019-05-07T23:36:04.252Z,7.91
2019-05-07T23:38:33.774Z,7.88
2019-05-07T23:41:22.323Z,7.83
2019-05-07T23:44:12.625Z,7.79
2019-05-07T23:46:44.894Z,7.77
2019-05-07T23:49:13.603Z,7.77
2019-05-07T23:51:43.133Z,7.75
2019-05-07T23:54:12.567Z,7.73
2019-05-07T23:56:43.003Z,7.71
2019-05-07T23:59:14.925Z,7.69
